createdAt,value
2019-04-30T00:02:00.369Z,95134.38
2019-04-30T00:05:10.032Z,95133.02
2019-04-30T00:08:18.419Z,95135.45
2019-04-30T00:11:25.740Z,95127.63
2019-04-30T00:14:39.908Z,95116.26
2019-04-30T00:17:45.623Z,95110.31
2019-04-30T00:20:52.855Z,95111.06
2019-04-30T00:24:04.943Z,95106.58
2019-04-30T00:27:10.249Z,95094.65
2019-04-30T00:30:18.011Z,95088.32
2019-04-30T00:33:27.661Z,95082.08
2019-04-30T00:36:37.386Z,95094.58
2019-04-30T00:39:50.694Z,95089.88
2019-04-30T00:42:53.213Z,95086.75
2019-04-30T00:46:00.876Z,95087.15
2019-04-30T00:49:11.705Z,95091.73
2019-04-30T00:52:18.168Z,95085.39
2019-04-30T00:55:25.447Z,95075.00
2019-04-30T00:58:33.495Z,95077.54
2019-04-30T01:02:06.160Z,95079.92
2019-04-30T01:05:16.972Z,95069.06
2019-04-30T01:08:28.451Z,95060.52
2019-04-30T01:11:35.545Z,95052.57
2019-04-30T01:14:43.513Z,95045.58
2019-04-30T01:17:53.696Z,95042.90
2019-04-30T01:21:03.039Z,95038.08
2019-04-30T01:24:10.677Z,95030.56
2019-04-30T01:27:18.863Z,95026.84
2019-04-30T01:30:28.387Z,95041.30
2019-04-30T01:33:36.377Z,95044.92
2019-04-30T01:36:50.715Z,95038.75
2019-04-30T01:39:53.576Z,95029.80
2019-04-30T01:43:01.497Z,95026.52
2019-04-30T01:46:13.905Z,95030.09
2019-04-30T01:49:25.752Z,95023.46
2019-04-30T01:52:49.330Z,95021.00
2019-04-30T01:56:20.625Z,95020.67
2019-04-30T01:59:48.626Z,95026.69
2019-04-30T02:02:56.023Z,95027.09
2019-04-30T02:06:03.560Z,95024.63
2019-04-30T02:09:11.086Z,95021.25
2019-04-30T02:12:19.759Z,95024.33
2019-04-30T02:15:29.201Z,95021.94
2019-04-30T02:18:39.291Z,95027.39
2019-04-30T02:21:48.321Z,95029.16
2019-04-30T02:24:56.284Z,95029.40
2019-04-30T02:28:03.757Z,95027.49
2019-04-30T02:31:11.177Z,95020.02
2019-04-30T02:34:25.832Z,95018.25
2019-04-30T02:37:36.117Z,95019.48
2019-04-30T02:40:44.340Z,95017.16
2019-04-30T02:43:55.651Z,95018.73
2019-04-30T02:47:04.560Z,95008.73
2019-04-30T02:50:18.417Z,95012.48
2019-04-30T02:54:20.313Z,95010.58
2019-04-30T02:57:29.946Z,95014.79
2019-04-30T03:00:39.391Z,95015.16
2019-04-30T03:03:50.116Z,95023.30
2019-04-30T03:06:59.550Z,95014.75
2019-04-30T03:10:10.129Z,95021.34
2019-04-30T03:13:19.964Z,95015.00
2019-04-30T03:16:34.753Z,95014.00
2019-04-30T03:19:56.624Z,95009.30
2019-04-30T03:23:04.673Z,95013.97
2019-04-30T03:26:12.970Z,95007.05
2019-04-30T03:29:23.857Z,95012.68
2019-04-30T03:32:36.236Z,95010.47
2019-04-30T03:35:42.230Z,95008.33
2019-04-30T03:38:50.202Z,95007.09
2019-04-30T03:41:59.733Z,95009.03
2019-04-30T03:45:10.175Z,95005.44
2019-04-30T03:48:20.011Z,95005.04
2019-04-30T03:51:29.776Z,95007.83
2019-04-30T03:54:36.700Z,95006.39
2019-04-30T03:57:44.017Z,95003.99
2019-04-30T04:01:23.430Z,95008.98
2019-04-30T04:04:44.644Z,95010.13
2019-04-30T04:08:23.948Z,95013.67
2019-04-30T04:11:36.078Z,95010.34
2019-04-30T04:14:46.661Z,95016.63
2019-04-30T04:17:53.994Z,95012.68
2019-04-30T04:21:11.370Z,95013.55
2019-04-30T04:24:12.190Z,95010.91
2019-04-30T04:27:20.837Z,95010.67
2019-04-30T04:30:29.773Z,95010.47
2019-04-30T04:33:39.548Z,95016.64
2019-04-30T04:36:50.230Z,95013.52
2019-04-30T04:39:59.575Z,95015.45
2019-04-30T04:43:06.826Z,95015.45
2019-04-30T04:46:15.184Z,95015.45
2019-04-30T04:49:22.910Z,95015.83
2019-04-30T04:52:31.405Z,95022.36
2019-04-30T04:55:40.025Z,95020.71
2019-04-30T04:58:50.271Z,95011.82
2019-04-30T05:02:01.170Z,95016.14
2019-04-30T05:05:09.648Z,95007.58
2019-04-30T05:08:18.567Z,95001.52
2019-04-30T05:11:31.635Z,94994.77
2019-04-30T05:14:39.697Z,94996.28
2019-04-30T05:17:49.282Z,95003.28
2019-04-30T05:20:56.517Z,95002.08
2019-04-30T05:24:04.258Z,94998.42
2019-04-30T05:27:11.796Z,94999.20
2019-04-30T05:30:19.994Z,95000.05
2019-04-30T05:33:28.625Z,95002.55
2019-04-30T05:36:36.787Z,95005.97
2019-04-30T05:39:44.686Z,95010.48
2019-04-30T05:42:52.369Z,95019.52
2019-04-30T05:45:59.905Z,95025.03
2019-04-30T05:49:09.016Z,95029.16
2019-04-30T05:52:16.601Z,95022.03
2019-04-30T05:55:25.069Z,95028.52
2019-04-30T05:58:32.572Z,95038.45
2019-04-30T06:01:47.868Z,95029.96
2019-04-30T06:04:50.214Z,95036.73
2019-04-30T06:07:59.322Z,95043.51
2019-04-30T06:11:14.213Z,95041.23
2019-04-30T06:14:46.631Z,95045.84
2019-04-30T06:17:59.688Z,95054.02
2019-04-30T06:20:59.529Z,95050.32
2019-04-30T06:24:08.286Z,95057.48
2019-04-30T06:27:19.049Z,95056.74
2019-04-30T06:30:29.556Z,95060.45
2019-04-30T06:33:38.766Z,95064.77
2019-04-30T06:36:53.111Z,95067.95
2019-04-30T06:39:59.981Z,95071.44
2019-04-30T06:43:09.156Z,95063.21
2019-04-30T06:46:18.715Z,95056.13
2019-04-30T06:49:29.036Z,95059.45
2019-04-30T06:52:36.821Z,95062.97
2019-04-30T06:55:44.258Z,95066.39
2019-04-30T06:58:52.645Z,95062.26
2019-04-30T07:02:00.358Z,95059.74
2019-04-30T07:05:10.049Z,95050.62
2019-04-30T07:08:54.805Z,95060.91
2019-04-30T07:12:08.957Z,95062.81
2019-04-30T07:15:16.270Z,95065.03
2019-04-30T07:18:23.946Z,95066.54
2019-04-30T07:21:31.901Z,95077.25
2019-04-30T07:24:41.449Z,95069.58
2019-04-30T07:27:50.518Z,95066.41
2019-04-30T07:31:10.614Z,95061.19
2019-04-30T07:34:09.329Z,95060.89
2019-04-30T07:37:23.930Z,95059.57
2019-04-30T07:40:26.341Z,95063.47
2019-04-30T07:43:34.044Z,95069.34
2019-04-30T07:46:45.267Z,95074.88
2019-04-30T07:49:55.549Z,95082.17
2019-04-30T07:53:06.483Z,95075.88
2019-04-30T07:56:25.743Z,95078.38
2019-04-30T07:59:25.060Z,95081.88
2019-04-30T08:02:41.554Z,95082.12
2019-04-30T08:05:50.028Z,95084.03
2019-04-30T08:09:00.557Z,95081.85
2019-04-30T08:12:09.245Z,95093.38
2019-04-30T08:15:17.219Z,95084.69
2019-04-30T08:18:24.504Z,95092.52
2019-04-30T08:21:31.829Z,95093.84
2019-04-30T08:24:39.826Z,95100.05
2019-04-30T08:27:49.097Z,95093.65
2019-04-30T08:30:58.940Z,95094.91
2019-04-30T08:34:06.573Z,95092.46
2019-04-30T08:37:17.620Z,95099.36
2019-04-30T08:40:23.321Z,95097.19
2019-04-30T08:43:30.604Z,95101.16
2019-04-30T08:46:38.783Z,95101.40
2019-04-30T08:49:50.866Z,95104.38
2019-04-30T08:52:59.764Z,95100.28
2019-04-30T08:56:10.121Z,95112.06
2019-04-30T08:59:19.498Z,95111.88
2019-04-30T09:02:29.030Z,95118.13
2019-04-30T09:05:56.290Z,95114.17
2019-04-30T09:09:13.127Z,95112.45
2019-04-30T09:12:20.709Z,95113.97
2019-04-30T09:15:29.051Z,95102.43
2019-04-30T09:18:39.221Z,95111.07
2019-04-30T09:21:46.205Z,95106.16
2019-04-30T09:24:53.990Z,95105.23
2019-04-30T09:28:04.399Z,95104.63
2019-04-30T09:31:11.375Z,95106.73
2019-04-30T09:34:21.092Z,95109.98
2019-04-30T09:37:30.631Z,95112.34
2019-04-30T09:40:39.913Z,95112.09
2019-04-30T09:43:49.401Z,95110.63
2019-04-30T09:46:58.864Z,95127.27
2019-04-30T09:50:09.001Z,95124.14
2019-04-30T09:53:17.020Z,95128.59
2019-04-30T09:56:24.936Z,95120.73
2019-04-30T09:59:33.077Z,95117.47
2019-04-30T10:02:40.628Z,95119.03
2019-04-30T10:05:49.087Z,95116.52
2019-04-30T10:08:57.262Z,95112.95
2019-04-30T10:12:10.160Z,95110.22
2019-04-30T10:15:31.477Z,95112.41
2019-04-30T10:18:39.963Z,95114.13
2019-04-30T10:21:48.947Z,95118.34
2019-04-30T10:24:59.533Z,95115.29
2019-04-30T10:28:09.760Z,95118.78
2019-04-30T10:31:16.697Z,95122.69
2019-04-30T10:34:45.875Z,95120.03
2019-04-30T10:37:53.269Z,95124.44
2019-04-30T10:41:03.863Z,95124.38
2019-04-30T10:44:11.617Z,95118.30
2019-04-30T10:47:19.411Z,95114.85
2019-04-30T10:50:27.208Z,95119.38
2019-04-30T10:53:34.764Z,95119.61
2019-04-30T10:56:42.408Z,95115.47
2019-04-30T10:59:50.302Z,95113.18
2019-04-30T11:02:59.336Z,95111.67
2019-04-30T11:06:08.684Z,95112.72
2019-04-30T11:09:17.215Z,95108.49
2019-04-30T11:12:24.991Z,95106.31
2019-04-30T11:15:33.065Z,95109.42
2019-04-30T11:18:41.312Z,95101.70
2019-04-30T11:21:49.055Z,95110.09
2019-04-30T11:25:01.921Z,95099.99
2019-04-30T11:28:06.929Z,95089.91
2019-04-30T11:31:33.634Z,95094.83
2019-04-30T11:34:41.744Z,95094.78
2019-04-30T11:37:49.532Z,95092.56
2019-04-30T11:40:58.456Z,95078.27
2019-04-30T11:44:05.958Z,95073.11
2019-04-30T11:47:34.035Z,95065.39
2019-04-30T11:50:41.425Z,95064.13
2019-04-30T11:53:49.152Z,95068.42
2019-04-30T11:56:58.715Z,95072.25
2019-04-30T12:00:13.261Z,95064.60
2019-04-30T12:03:25.535Z,95072.27
2019-04-30T12:06:33.401Z,95068.03
2019-04-30T12:09:56.700Z,95072.42
2019-04-30T12:13:06.188Z,95068.70
2019-04-30T12:16:13.679Z,95072.97
2019-04-30T12:19:21.315Z,95076.41
2019-04-30T12:22:29.672Z,95075.81
2019-04-30T12:25:38.816Z,95065.23
2019-04-30T12:28:47.120Z,95070.61
2019-04-30T12:31:54.729Z,95067.94
2019-04-30T12:35:03.133Z,95058.85
2019-04-30T12:38:10.556Z,95067.00
2019-04-30T12:41:18.107Z,95068.49
2019-04-30T12:44:25.639Z,95076.38
2019-04-30T12:47:36.066Z,95073.55
2019-04-30T12:50:53.724Z,95072.55
2019-04-30T12:54:10.653Z,95073.66
2019-04-30T12:57:26.523Z,95078.55
2019-04-30T13:00:34.721Z,95075.63
2019-04-30T13:03:42.340Z,95071.63
2019-04-30T13:06:50.995Z,95064.83
2019-04-30T13:10:01.594Z,95056.63
2019-04-30T13:13:09.769Z,95057.90
2019-04-30T13:16:19.412Z,95055.08
2019-04-30T13:19:26.989Z,95052.77
2019-04-30T13:22:34.786Z,95050.05
2019-04-30T13:25:50.685Z,95053.80
2019-04-30T13:28:58.676Z,95058.09
2019-04-30T13:32:06.144Z,95060.55
2019-04-30T13:35:14.050Z,95062.19
2019-04-30T13:38:45.159Z,95055.30
2019-04-30T13:41:50.746Z,95054.20
2019-04-30T13:44:58.777Z,95055.33
2019-04-30T13:48:06.423Z,95055.63
2019-04-30T13:51:14.180Z,95055.95
2019-04-30T13:54:22.186Z,95060.42
2019-04-30T13:57:30.161Z,95064.19
2019-04-30T14:00:39.693Z,95067.19
2019-04-30T14:03:54.940Z,95068.05
2019-04-30T14:07:20.881Z,95069.33
2019-04-30T14:10:32.061Z,95064.37
2019-04-30T14:13:42.228Z,95056.63
2019-04-30T14:16:52.340Z,95061.15
2019-04-30T14:20:01.033Z,95052.66
2019-04-30T14:23:10.756Z,95054.18
2019-04-30T14:26:19.391Z,95051.16
2019-04-30T14:29:29.856Z,95043.08
2019-04-30T14:32:39.608Z,95039.52
2019-04-30T14:35:49.668Z,95036.57
2019-04-30T14:39:13.041Z,95029.23
2019-04-30T14:42:10.572Z,95037.41
2019-04-30T14:45:24.072Z,95038.13
2019-04-30T14:48:40.591Z,95039.20
2019-04-30T14:51:49.015Z,95046.80
2019-04-30T14:55:18.754Z,95046.63
2019-04-30T14:58:40.024Z,95047.92
2019-04-30T15:01:59.138Z,95049.02
2019-04-30T15:05:08.987Z,95055.63
2019-04-30T15:08:16.607Z,95056.69
2019-04-30T15:11:24.173Z,95051.30
2019-04-30T15:14:32.638Z,95046.13
2019-04-30T15:17:41.254Z,95055.84
2019-04-30T15:20:49.892Z,95056.31
2019-04-30T15:24:09.412Z,95050.45
2019-04-30T15:27:19.158Z,95057.88
2019-04-30T15:30:28.892Z,95055.32
2019-04-30T15:34:10.800Z,95060.42
2019-04-30T15:37:23.495Z,95063.33
2019-04-30T15:40:29.263Z,95062.18
2019-04-30T15:43:37.392Z,95067.70
2019-04-30T15:46:45.739Z,95070.58
2019-04-30T15:49:53.649Z,95072.91
2019-04-30T15:53:01.429Z,95068.56
2019-04-30T15:56:09.292Z,95066.77
2019-04-30T15:59:39.516Z,95070.91
2019-04-30T16:02:57.470Z,95069.56
2019-04-30T16:06:04.783Z,95063.25
2019-04-30T16:09:20.270Z,95068.47
2019-04-30T16:12:36.005Z,95064.61
2019-04-30T16:15:43.831Z,95065.27
2019-04-30T16:18:51.856Z,95063.61
2019-04-30T16:22:04.199Z,95063.94
2019-04-30T16:25:16.096Z,95059.72
2019-04-30T16:28:24.004Z,95053.95
2019-04-30T16:31:32.009Z,95056.38
2019-04-30T16:35:36.301Z,95055.14
2019-04-30T16:38:44.422Z,95052.61
2019-04-30T16:41:52.621Z,95050.41
2019-04-30T16:45:00.962Z,95049.95
2019-04-30T16:48:10.097Z,95057.23
2019-04-30T16:51:18.943Z,95051.23
2019-04-30T16:54:28.476Z,95045.91
2019-04-30T16:57:39.568Z,95042.37
2019-04-30T17:00:49.244Z,95040.36
2019-04-30T17:04:09.117Z,95046.54
2019-04-30T17:07:52.254Z,95046.80
2019-04-30T17:11:21.346Z,95046.91
2019-04-30T17:14:30.835Z,95048.77
2019-04-30T17:17:39.699Z,95048.25
2019-04-30T17:20:49.293Z,95045.00
2019-04-30T17:23:58.830Z,95044.02
2019-04-30T17:27:17.134Z,95046.66
2019-04-30T17:30:19.204Z,95044.81
2019-04-30T17:33:26.535Z,95041.92
2019-04-30T17:36:34.119Z,95036.59
2019-04-30T17:39:42.259Z,95035.10
2019-04-30T17:42:50.101Z,95031.44
2019-04-30T17:45:59.573Z,95041.41
2019-04-30T17:49:07.768Z,95038.11
2019-04-30T17:52:16.412Z,95041.63
2019-04-30T17:55:23.975Z,95040.99
2019-04-30T17:58:31.998Z,95046.33
2019-04-30T18:01:41.659Z,95049.55
2019-04-30T18:04:49.711Z,95052.05
2019-04-30T18:07:57.709Z,95057.62
2019-04-30T18:11:05.316Z,95064.78
2019-04-30T18:14:13.928Z,95070.02
2019-04-30T18:17:23.590Z,95073.19
2019-04-30T18:20:39.633Z,95078.78
2019-04-30T18:24:16.630Z,95083.97
2019-04-30T18:27:42.818Z,95088.29
2019-04-30T18:30:41.566Z,95095.88
2019-04-30T18:33:51.336Z,95092.09
2019-04-30T18:36:59.362Z,95096.55
2019-04-30T18:40:09.623Z,95095.00
2019-04-30T18:43:20.395Z,95101.75
2019-04-30T18:46:29.239Z,95102.55
2019-04-30T18:49:39.395Z,95099.54
2019-04-30T18:52:48.724Z,95104.06
2019-04-30T18:55:59.044Z,95102.08
2019-04-30T18:59:08.657Z,95104.27
2019-04-30T19:02:17.038Z,95110.82
2019-04-30T19:05:30.908Z,95108.13
2019-04-30T19:08:44.070Z,95114.80
2019-04-30T19:12:14.486Z,95122.55
2019-04-30T19:16:11.420Z,95121.23
2019-04-30T19:19:00.993Z,95124.91
2019-04-30T19:22:09.656Z,95131.00
2019-04-30T19:25:19.086Z,95131.31
2019-04-30T19:28:28.705Z,95130.22
2019-04-30T19:31:36.810Z,95132.22
2019-04-30T19:34:45.141Z,95134.36
2019-04-30T19:37:52.650Z,95143.30
2019-04-30T19:41:00.739Z,95136.12
2019-04-30T19:44:09.727Z,95140.81
2019-04-30T19:47:19.129Z,95130.46
2019-04-30T19:50:27.307Z,95130.39
2019-04-30T19:53:35.234Z,95130.23
2019-04-30T19:56:42.630Z,95132.80
2019-04-30T19:59:50.766Z,95133.11
2019-04-30T20:02:59.932Z,95128.22
2019-04-30T20:06:09.035Z,95124.69
2019-04-30T20:09:19.294Z,95135.34
2019-04-30T20:12:29.012Z,95138.30
2019-04-30T20:15:39.177Z,95132.33
2019-04-30T20:18:49.013Z,95133.82
2019-04-30T20:21:56.828Z,95146.89
2019-04-30T20:25:04.929Z,95145.34
2019-04-30T20:28:12.415Z,95135.89
2019-04-30T20:31:20.017Z,95131.92
2019-04-30T20:34:29.267Z,95129.69
2019-04-30T20:37:55.433Z,95126.66
2019-04-30T20:41:04.164Z,95126.66
2019-04-30T20:44:12.196Z,95132.33
2019-04-30T20:47:21.041Z,95126.19
2019-04-30T20:50:29.529Z,95123.37
2019-04-30T20:53:39.068Z,95126.41
2019-04-30T20:56:48.337Z,95126.55
2019-04-30T20:59:57.055Z,95123.73
2019-04-30T21:03:04.857Z,95129.20
2019-04-30T21:06:12.350Z,95128.34
2019-04-30T21:09:20.950Z,95122.34
2019-04-30T21:12:28.855Z,95125.30
2019-04-30T21:15:36.671Z,95120.65
2019-04-30T21:18:44.311Z,95120.17
2019-04-30T21:21:52.325Z,95123.42
2019-04-30T21:25:00.637Z,95122.05
2019-04-30T21:28:09.705Z,95126.66
2019-04-30T21:31:36.518Z,95121.80
2019-04-30T21:34:50.066Z,95122.22
2019-04-30T21:38:01.688Z,95120.58
2019-04-30T21:41:10.099Z,95114.34
2019-04-30T21:44:17.610Z,95112.09
2019-04-30T21:47:25.459Z,95111.31
2019-04-30T21:50:33.646Z,95112.23
2019-04-30T21:53:40.994Z,95114.91
2019-04-30T21:56:48.789Z,95110.94
2019-04-30T21:59:58.678Z,95107.18
2019-04-30T22:03:07.183Z,95108.50
2019-04-30T22:06:16.962Z,95108.60
2019-04-30T22:09:24.818Z,95101.27
2019-04-30T22:12:32.832Z,95099.71
2019-04-30T22:15:40.508Z,95096.76
2019-04-30T22:18:48.212Z,95096.76
2019-04-30T22:21:55.968Z,95092.72
2019-04-30T22:25:04.057Z,95094.96
2019-04-30T22:28:11.478Z,95093.66
2019-04-30T22:31:19.798Z,95096.12
2019-04-30T22:34:27.897Z,95094.89
2019-04-30T22:37:36.036Z,95097.53
2019-04-30T22:40:43.481Z,95098.17
2019-04-30T22:43:51.067Z,95098.41
2019-04-30T22:47:00.744Z,95095.98
2019-04-30T22:50:09.301Z,95091.34
2019-04-30T22:53:17.279Z,95088.44
2019-04-30T22:56:24.719Z,95090.76
2019-04-30T22:59:32.321Z,95093.29
2019-04-30T23:02:57.831Z,95095.18
2019-04-30T23:06:05.688Z,95092.30
2019-04-30T23:09:14.879Z,95096.77
2019-04-30T23:12:22.683Z,95092.22
2019-04-30T23:15:30.333Z,95091.04
2019-04-30T23:18:38.243Z,95090.16
2019-04-30T23:21:45.891Z,95087.41
2019-04-30T23:24:53.538Z,95089.31
2019-04-30T23:28:01.234Z,95088.59
2019-04-30T23:31:08.694Z,95086.97
2019-04-30T23:34:18.174Z,95084.41
2019-04-30T23:37:26.695Z,95082.06
2019-04-30T23:40:49.671Z,95079.66
2019-04-30T23:43:58.426Z,95075.66
2019-04-30T23:47:05.836Z,95074.33
2019-04-30T23:50:15.625Z,95078.81
2019-04-30T23:53:23.495Z,95067.73
2019-04-30T23:56:31.352Z,95069.34
2019-04-30T23:59:39.252Z,95067.12
